sensor_id;sensor_type;location;lat;lon;timestamp;P1;durP1;ratioP1;P2;durP2;ratioP2
49610;SDS011;35515;48.766;9.176;2024-03-17T00:00:05;8.95;;;4.85;;
49610;SDS011;35515;48.766;9.176;2024-03-17T00:02:35;7.30;;;4.57;;
49610;SDS011;35515;48.766;9.176;2024-03-17T00:05:03;6.30;;;4.90;;
49610;SDS011;35515;48.766;9.176;2024-03-17T00:07:30;7.68;;;4.80;;
49610;SDS011;35515;48.766;9.176;2024-03-17T00:09:56;9.05;;;4.97;;
49610;SDS011;35515;48.766;9.176;2024-03-17T00:12:25;6.75;;;4.93;;
49610;SDS011;35515;48.766;9.176;2024-03-17T00:14:51;7.55;;;4.90;;
49610;SDS011;35515;48.766;9.176;2024-03-17T00:17:17;7.28;;;4.53;;
49610;SDS011;35515;48.766;9.176;2024-03-17T00:19:45;7.30;;;4.78;;
49610;SDS011;35515;48.766;9.176;2024-03-17T00:22:13;7.57;;;4.38;;
49610;SDS011;35515;48.766;9.176;2024-03-17T00:24:39;6.88;;;4.88;;
49610;SDS011;35515;48.766;9.176;2024-03-17T00:27:06;6.00;;;4.50;;
49610;SDS011;35515;48.766;9.176;2024-03-17T00:29:34;7.78;;;5.03;;
49610;SDS011;35515;48.766;9.176;2024-03-17T00:32:01;8.52;;;5.03;;
49610;SDS011;35515;48.766;9.176;2024-03-17T00:34:29;8.60;;;5.35;;
49610;SDS011;35515;48.766;9.176;2024-03-17T00:36:56;8.38;;;5.00;;
49610;SDS011;35515;48.766;9.176;2024-03-17T00:39:23;7.63;;;5.65;;
49610;SDS011;35515;48.766;9.176;2024-03-17T00:41:50;7.70;;;5.00;;
49610;SDS011;35515;48.766;9.176;2024-03-17T00:44:16;9.57;;;5.65;;
49610;SDS011;35515;48.766;9.176;2024-03-17T00:46:42;12.35;;;5.75;;
49610;SDS011;35515;48.766;9.176;2024-03-17T00:49:08;7.43;;;4.85;;
49610;SDS011;35515;48.766;9.176;2024-03-17T00:51:35;8.43;;;5.15;;
49610;SDS011;35515;48.766;9.176;2024-03-17T00:54:01;13.45;;;6.18;;
49610;SDS011;35515;48.766;9.176;2024-03-17T00:56:29;8.77;;;4.88;;
49610;SDS011;35515;48.766;9.176;2024-03-17T00:58:56;7.45;;;4.88;;
49610;SDS011;35515;48.766;9.176;2024-03-17T01:01:22;11.90;;;5.35;;
49610;SDS011;35515;48.766;9.176;2024-03-17T01:03:48;8.48;;;4.90;;
49610;SDS011;35515;48.766;9.176;2024-03-17T01:06:14;9.77;;;5.00;;
49610;SDS011;35515;48.766;9.176;2024-03-17T01:08:40;8.00;;;5.20;;
49610;SDS011;35515;48.766;9.176;2024-03-17T01:11:06;6.50;;;5.07;;
49610;SDS011;35515;48.766;9.176;2024-03-17T01:13:35;6.82;;;5.10;;
49610;SDS011;35515;48.766;9.176;2024-03-17T01:16:06;7.65;;;4.72;;
49610;SDS011;35515;48.766;9.176;2024-03-17T01:18:33;8.20;;;5.55;;
49610;SDS011;35515;48.766;9.176;2024-03-17T01:20:59;7.40;;;5.00;;
49610;SDS011;35515;48.766;9.176;2024-03-17T01:23:26;8.95;;;5.25;;
49610;SDS011;35515;48.766;9.176;2024-03-17T01:25:52;11.07;;;6.10;;
49610;SDS011;35515;48.766;9.176;2024-03-17T01:28:18;8.52;;;5.55;;
49610;SDS011;35515;48.766;9.176;2024-03-17T01:30:45;10.63;;;5.95;;
49610;SDS011;35515;48.766;9.176;2024-03-17T01:33:12;10.10;;;5.13;;
49610;SDS011;35515;48.766;9.176;2024-03-17T01:35:38;9.48;;;5.93;;
49610;SDS011;35515;48.766;9.176;2024-03-17T01:38:04;6.53;;;4.78;;
49610;SDS011;35515;48.766;9.176;2024-03-17T01:40:30;9.52;;;5.97;;
49610;SDS011;35515;48.766;9.176;2024-03-17T01:42:56;7.90;;;5.03;;
49610;SDS011;35515;48.766;9.176;2024-03-17T01:45:26;9.50;;;5.88;;
49610;SDS011;35515;48.766;9.176;2024-03-17T01:47:55;9.10;;;5.38;;
49610;SDS011;35515;48.766;9.176;2024-03-17T01:50:23;8.93;;;5.70;;
49610;SDS011;35515;48.766;9.176;2024-03-17T01:52:51;8.50;;;5.50;;
49610;SDS011;35515;48.766;9.176;2024-03-17T01:55:19;9.23;;;5.05;;
49610;SDS011;35515;48.766;9.176;2024-03-17T01:57:47;8.68;;;5.20;;
49610;SDS011;35515;48.766;9.176;2024-03-17T02:00:13;7.80;;;4.95;;
49610;SDS011;35515;48.766;9.176;2024-03-17T02:02:40;9.77;;;6.10;;
49610;SDS011;35515;48.766;9.176;2024-03-17T02:05:07;7.35;;;5.50;;
49610;SDS011;35515;48.766;9.176;2024-03-17T02:07:35;9.18;;;5.97;;
49610;SDS011;35515;48.766;9.176;2024-03-17T02:10:01;8.00;;;5.07;;
49610;SDS011;35515;48.766;9.176;2024-03-17T02:12:30;8.82;;;5.45;;
49610;SDS011;35515;48.766;9.176;2024-03-17T02:14:56;11.63;;;5.50;;
49610;SDS011;35515;48.766;9.176;2024-03-17T02:17:23;10.82;;;5.75;;
49610;SDS011;35515;48.766;9.176;2024-03-17T02:19:50;13.35;;;6.03;;
49610;SDS011;35515;48.766;9.176;2024-03-17T02:22:18;7.93;;;5.20;;
49610;SDS011;35515;48.766;9.176;2024-03-17T02:24:44;9.55;;;6.15;;
49610;SDS011;35515;48.766;9.176;2024-03-17T02:27:10;8.93;;;6.22;;
49610;SDS011;35515;48.766;9.176;2024-03-17T02:29:36;8.15;;;6.03;;
49610;SDS011;35515;48.766;9.176;2024-03-17T02:32:02;8.18;;;5.40;;
49610;SDS011;35515;48.766;9.176;2024-03-17T02:34:32;8.18;;;5.28;;
49610;SDS011;35515;48.766;9.176;2024-03-17T02:36:58;8.20;;;4.78;;
49610;SDS011;35515;48.766;9.176;2024-03-17T02:39:25;8.23;;;5.18;;
49610;SDS011;35515;48.766;9.176;2024-03-17T02:42:00;10.77;;;6.07;;
49610;SDS011;35515;48.766;9.176;2024-03-17T02:44:27;9.30;;;6.03;;
49610;SDS011;35515;48.766;9.176;2024-03-17T02:46:55;10.07;;;5.57;;
49610;SDS011;35515;48.766;9.176;2024-03-17T02:49:22;12.02;;;5.20;;
49610;SDS011;35515;48.766;9.176;2024-03-17T02:51:49;9.63;;;5.10;;
49610;SDS011;35515;48.766;9.176;2024-03-17T02:54:15;9.32;;;5.13;;
49610;SDS011;35515;48.766;9.176;2024-03-17T02:56:43;9.70;;;5.30;;
49610;SDS011;35515;48.766;9.176;2024-03-17T02:59:10;9.82;;;5.53;;
49610;SDS011;35515;48.766;9.176;2024-03-17T03:01:36;9.30;;;5.30;;
49610;SDS011;35515;48.766;9.176;2024-03-17T03:04:03;7.45;;;4.68;;
49610;SDS011;35515;48.766;9.176;2024-03-17T03:06:30;6.85;;;4.90;;
49610;SDS011;35515;48.766;9.176;2024-03-17T03:08:57;7.82;;;5.18;;
49610;SDS011;35515;48.766;9.176;2024-03-17T03:11:24;8.20;;;5.35;;
49610;SDS011;35515;48.766;9.176;2024-03-17T03:13:52;9.35;;;5.20;;
49610;SDS011;35515;48.766;9.176;2024-03-17T03:16:18;7.82;;;4.82;;
49610;SDS011;35515;48.766;9.176;2024-03-17T03:18:45;7.95;;;4.47;;
49610;SDS011;35515;48.766;9.176;2024-03-17T03:21:12;7.40;;;5.57;;
49610;SDS011;35515;48.766;9.176;2024-03-17T03:23:38;10.35;;;5.25;;
49610;SDS011;35515;48.766;9.176;2024-03-17T03:26:05;10.15;;;5.15;;
49610;SDS011;35515;48.766;9.176;2024-03-17T03:28:35;7.65;;;5.50;;
49610;SDS011;35515;48.766;9.176;2024-03-17T03:31:07;6.28;;;5.15;;
49610;SDS011;35515;48.766;9.176;2024-03-17T03:33:38;10.02;;;5.50;;
49610;SDS011;35515;48.766;9.176;2024-03-17T03:36:07;9.13;;;4.93;;
49610;SDS011;35515;48.766;9.176;2024-03-17T03:38:34;7.97;;;5.05;;
49610;SDS011;35515;48.766;9.176;2024-03-17T03:41:05;7.38;;;5.45;;
49610;SDS011;35515;48.766;9.176;2024-03-17T03:45:59;7.10;;;5.13;;
49610;SDS011;35515;48.766;9.176;2024-03-17T03:48:27;11.00;;;6.03;;
49610;SDS011;35515;48.766;9.176;2024-03-17T03:50:54;9.30;;;5.90;;
49610;SDS011;35515;48.766;9.176;2024-03-17T03:53:20;9.75;;;5.93;;
49610;SDS011;35515;48.766;9.176;2024-03-17T03:55:47;9.20;;;5.38;;
49610;SDS011;35515;48.766;9.176;2024-03-17T03:58:14;10.45;;;5.68;;
49610;SDS011;35515;48.766;9.176;2024-03-17T04:00:41;7.72;;;5.05;;
49610;SDS011;35515;48.766;9.176;2024-03-17T04:03:08;7.85;;;5.07;;
49610;SDS011;35515;48.766;9.176;2024-03-17T04:05:35;7.78;;;5.72;;
49610;SDS011;35515;48.766;9.176;2024-03-17T04:08:02;9.70;;;6.38;;
49610;SDS011;35515;48.766;9.176;2024-03-17T04:10:29;7.28;;;5.10;;
49610;SDS011;35515;48.766;9.176;2024-03-17T04:12:56;7.18;;;4.85;;
49610;SDS011;35515;48.766;9.176;2024-03-17T04:15:23;9.13;;;5.63;;
49610;SDS011;35515;48.766;9.176;2024-03-17T04:17:49;10.27;;;6.60;;
49610;SDS011;35515;48.766;9.176;2024-03-17T04:20:17;7.82;;;5.35;;
49610;SDS011;35515;48.766;9.176;2024-03-17T04:22:45;8.27;;;5.45;;
49610;SDS011;35515;48.766;9.176;2024-03-17T04:25:13;8.75;;;5.18;;
49610;SDS011;35515;48.766;9.176;2024-03-17T04:27:40;9.68;;;6.55;;
49610;SDS011;35515;48.766;9.176;2024-03-17T04:30:07;8.93;;;6.13;;
49610;SDS011;35515;48.766;9.176;2024-03-17T04:32:36;8.85;;;5.20;;
49610;SDS011;35515;48.766;9.176;2024-03-17T04:35:03;9.93;;;6.35;;
49610;SDS011;35515;48.766;9.176;2024-03-17T04:37:30;9.93;;;6.60;;
49610;SDS011;35515;48.766;9.176;2024-03-17T04:40:05;8.73;;;5.85;;
49610;SDS011;35515;48.766;9.176;2024-03-17T04:42:34;10.63;;;6.03;;
49610;SDS011;35515;48.766;9.176;2024-03-17T04:45:01;12.68;;;6.70;;
49610;SDS011;35515;48.766;9.176;2024-03-17T04:47:28;8.40;;;5.82;;
49610;SDS011;35515;48.766;9.176;2024-03-17T04:49:54;11.52;;;6.97;;
49610;SDS011;35515;48.766;9.176;2024-03-17T04:52:21;9.40;;;6.25;;
49610;SDS011;35515;48.766;9.176;2024-03-17T04:54:47;11.57;;;6.55;;
49610;SDS011;35515;48.766;9.176;2024-03-17T04:57:15;10.00;;;6.00;;
49610;SDS011;35515;48.766;9.176;2024-03-17T04:59:41;8.18;;;5.85;;
49610;SDS011;35515;48.766;9.176;2024-03-17T05:02:08;10.20;;;6.88;;
49610;SDS011;35515;48.766;9.176;2024-03-17T05:04:34;10.13;;;7.35;;
49610;SDS011;35515;48.766;9.176;2024-03-17T05:07:01;8.13;;;5.70;;
49610;SDS011;35515;48.766;9.176;2024-03-17T05:09:28;8.63;;;6.22;;
49610;SDS011;35515;48.766;9.176;2024-03-17T05:11:54;9.80;;;6.22;;
49610;SDS011;35515;48.766;9.176;2024-03-17T05:14:22;9.88;;;6.28;;
49610;SDS011;35515;48.766;9.176;2024-03-17T05:16:50;11.25;;;6.65;;
49610;SDS011;35515;48.766;9.176;2024-03-17T05:19:17;13.68;;;6.80;;
49610;SDS011;35515;48.766;9.176;2024-03-17T05:21:43;11.80;;;6.25;;
49610;SDS011;35515;48.766;9.176;2024-03-17T05:24:10;9.18;;;5.95;;
49610;SDS011;35515;48.766;9.176;2024-03-17T05:26:37;8.95;;;6.18;;
49610;SDS011;35515;48.766;9.176;2024-03-17T05:29:04;9.05;;;5.95;;
49610;SDS011;35515;48.766;9.176;2024-03-17T05:31:32;11.65;;;6.20;;
49610;SDS011;35515;48.766;9.176;2024-03-17T05:33:58;11.93;;;7.00;;
49610;SDS011;35515;48.766;9.176;2024-03-17T05:36:25;10.85;;;5.90;;
49610;SDS011;35515;48.766;9.176;2024-03-17T05:38:51;10.82;;;7.18;;
49610;SDS011;35515;48.766;9.176;2024-03-17T05:41:18;11.25;;;6.40;;
49610;SDS011;35515;48.766;9.176;2024-03-17T05:43:44;9.10;;;6.43;;
49610;SDS011;35515;48.766;9.176;2024-03-17T05:46:14;12.90;;;6.82;;
49610;SDS011;35515;48.766;9.176;2024-03-17T05:48:41;10.00;;;6.00;;
49610;SDS011;35515;48.766;9.176;2024-03-17T05:51:09;10.73;;;6.75;;
49610;SDS011;35515;48.766;9.176;2024-03-17T05:53:36;9.20;;;6.15;;
49610;SDS011;35515;48.766;9.176;2024-03-17T05:56:05;10.20;;;6.65;;
49610;SDS011;35515;48.766;9.176;2024-03-17T05:58:34;8.90;;;6.35;;
49610;SDS011;35515;48.766;9.176;2024-03-17T06:01:01;9.85;;;6.53;;
49610;SDS011;35515;48.766;9.176;2024-03-17T06:03:28;12.07;;;7.05;;
49610;SDS011;35515;48.766;9.176;2024-03-17T06:05:58;10.65;;;7.45;;
49610;SDS011;35515;48.766;9.176;2024-03-17T06:08:25;11.30;;;6.63;;
49610;SDS011;35515;48.766;9.176;2024-03-17T06:10:52;10.43;;;6.75;;
49610;SDS011;35515;48.766;9.176;2024-03-17T06:13:18;11.93;;;7.60;;
49610;SDS011;35515;48.766;9.176;2024-03-17T06:15:45;12.10;;;7.68;;
49610;SDS011;35515;48.766;9.176;2024-03-17T06:18:12;11.00;;;7.32;;
49610;SDS011;35515;48.766;9.176;2024-03-17T06:20:42;11.05;;;7.70;;
49610;SDS011;35515;48.766;9.176;2024-03-17T06:23:10;11.05;;;7.47;;
49610;SDS011;35515;48.766;9.176;2024-03-17T06:25:38;13.80;;;8.20;;
49610;SDS011;35515;48.766;9.176;2024-03-17T06:28:06;14.30;;;8.35;;
49610;SDS011;35515;48.766;9.176;2024-03-17T06:30:32;15.05;;;8.38;;
49610;SDS011;35515;48.766;9.176;2024-03-17T06:33:01;11.32;;;8.13;;
49610;SDS011;35515;48.766;9.176;2024-03-17T06:35:28;12.40;;;8.02;;
49610;SDS011;35515;48.766;9.176;2024-03-17T06:37:58;12.27;;;8.15;;
49610;SDS011;35515;48.766;9.176;2024-03-17T06:40:26;12.15;;;7.70;;
49610;SDS011;35515;48.766;9.176;2024-03-17T06:42:53;12.15;;;8.02;;
49610;SDS011;35515;48.766;9.176;2024-03-17T06:45:20;10.93;;;7.65;;
49610;SDS011;35515;48.766;9.176;2024-03-17T06:47:46;14.15;;;7.90;;
49610;SDS011;35515;48.766;9.176;2024-03-17T06:50:13;11.38;;;8.23;;
49610;SDS011;35515;48.766;9.176;2024-03-17T06:52:39;14.63;;;9.50;;
49610;SDS011;35515;48.766;9.176;2024-03-17T06:55:06;14.13;;;8.85;;
49610;SDS011;35515;48.766;9.176;2024-03-17T06:57:34;17.13;;;9.75;;
49610;SDS011;35515;48.766;9.176;2024-03-17T07:00:01;14.15;;;9.02;;
49610;SDS011;35515;48.766;9.176;2024-03-17T07:02:31;15.68;;;10.43;;
49610;SDS011;35515;48.766;9.176;2024-03-17T07:04:58;14.98;;;9.82;;
49610;SDS011;35515;48.766;9.176;2024-03-17T07:07:26;16.20;;;10.02;;
49610;SDS011;35515;48.766;9.176;2024-03-17T07:09:53;14.98;;;9.60;;
49610;SDS011;35515;48.766;9.176;2024-03-17T07:12:19;16.77;;;12.15;;
49610;SDS011;35515;48.766;9.176;2024-03-17T07:14:50;17.45;;;10.98;;
49610;SDS011;35515;48.766;9.176;2024-03-17T07:17:17;14.60;;;10.57;;
49610;SDS011;35515;48.766;9.176;2024-03-17T07:19:44;17.05;;;11.88;;
49610;SDS011;35515;48.766;9.176;2024-03-17T07:22:10;15.80;;;10.65;;
49610;SDS011;35515;48.766;9.176;2024-03-17T07:24:37;17.02;;;10.98;;
49610;SDS011;35515;48.766;9.176;2024-03-17T07:27:04;15.85;;;11.10;;
49610;SDS011;35515;48.766;9.176;2024-03-17T07:29:33;17.73;;;11.57;;
49610;SDS011;35515;48.766;9.176;2024-03-17T07:32:01;16.90;;;12.30;;
49610;SDS011;35515;48.766;9.176;2024-03-17T07:34:30;19.13;;;12.77;;
49610;SDS011;35515;48.766;9.176;2024-03-17T07:36:57;20.15;;;13.60;;
49610;SDS011;35515;48.766;9.176;2024-03-17T07:39:25;19.65;;;13.10;;
49610;SDS011;35515;48.766;9.176;2024-03-17T07:41:57;17.92;;;12.05;;
49610;SDS011;35515;48.766;9.176;2024-03-17T07:44:22;19.23;;;13.35;;
49610;SDS011;35515;48.766;9.176;2024-03-17T07:46:49;19.88;;;13.48;;
49610;SDS011;35515;48.766;9.176;2024-03-17T07:49:17;18.23;;;12.60;;
49610;SDS011;35515;48.766;9.176;2024-03-17T07:51:44;16.75;;;13.13;;
49610;SDS011;35515;48.766;9.176;2024-03-17T07:54:10;16.27;;;12.75;;
49610;SDS011;35515;48.766;9.176;2024-03-17T07:56:38;17.25;;;13.27;;
49610;SDS011;35515;48.766;9.176;2024-03-17T07:59:05;17.90;;;13.13;;
49610;SDS011;35515;48.766;9.176;2024-03-17T08:01:37;20.65;;;13.20;;
49610;SDS011;35515;48.766;9.176;2024-03-17T08:04:03;18.67;;;12.05;;
49610;SDS011;35515;48.766;9.176;2024-03-17T08:06:32;18.75;;;12.77;;
49610;SDS011;35515;48.766;9.176;2024-03-17T08:08:58;15.13;;;12.50;;
49610;SDS011;35515;48.766;9.176;2024-03-17T08:11:25;18.98;;;13.02;;
49610;SDS011;35515;48.766;9.176;2024-03-17T08:13:51;16.10;;;12.20;;
49610;SDS011;35515;48.766;9.176;2024-03-17T08:16:19;17.60;;;13.15;;
49610;SDS011;35515;48.766;9.176;2024-03-17T08:18:46;17.08;;;12.85;;
49610;SDS011;35515;48.766;9.176;2024-03-17T08:21:12;15.65;;;11.65;;
49610;SDS011;35515;48.766;9.176;2024-03-17T08:23:40;17.10;;;12.45;;
49610;SDS011;35515;48.766;9.176;2024-03-17T08:26:08;15.38;;;11.40;;
49610;SDS011;35515;48.766;9.176;2024-03-17T08:28:34;14.20;;;11.25;;
49610;SDS011;35515;48.766;9.176;2024-03-17T08:31:04;15.77;;;11.63;;
49610;SDS011;35515;48.766;9.176;2024-03-17T08:33:31;18.23;;;11.20;;
49610;SDS011;35515;48.766;9.176;2024-03-17T08:35:59;15.88;;;11.90;;
49610;SDS011;35515;48.766;9.176;2024-03-17T08:38:27;14.98;;;11.68;;
49610;SDS011;35515;48.766;9.176;2024-03-17T08:40:56;15.32;;;11.10;;
49610;SDS011;35515;48.766;9.176;2024-03-17T08:43:24;14.70;;;11.23;;
49610;SDS011;35515;48.766;9.176;2024-03-17T08:45:56;13.75;;;11.32;;
49610;SDS011;35515;48.766;9.176;2024-03-17T08:48:24;15.95;;;11.88;;
49610;SDS011;35515;48.766;9.176;2024-03-17T08:50:55;14.02;;;11.18;;
49610;SDS011;35515;48.766;9.176;2024-03-17T08:53:21;15.80;;;11.27;;
49610;SDS011;35515;48.766;9.176;2024-03-17T08:55:49;17.02;;;11.80;;
49610;SDS011;35515;48.766;9.176;2024-03-17T08:58:17;18.08;;;11.60;;
49610;SDS011;35515;48.766;9.176;2024-03-17T09:00:44;15.13;;;10.52;;
49610;SDS011;35515;48.766;9.176;2024-03-17T09:03:10;13.07;;;10.02;;
49610;SDS011;35515;48.766;9.176;2024-03-17T09:05:38;14.65;;;10.63;;
49610;SDS011;35515;48.766;9.176;2024-03-17T09:08:05;14.43;;;10.40;;
49610;SDS011;35515;48.766;9.176;2024-03-17T09:10:38;15.88;;;9.82;;
49610;SDS011;35515;48.766;9.176;2024-03-17T09:13:05;13.55;;;9.88;;
49610;SDS011;35515;48.766;9.176;2024-03-17T09:15:33;12.32;;;9.57;;
49610;SDS011;35515;48.766;9.176;2024-03-17T09:17:59;13.40;;;9.13;;
49610;SDS011;35515;48.766;9.176;2024-03-17T09:20:27;13.70;;;9.65;;
49610;SDS011;35515;48.766;9.176;2024-03-17T09:22:53;13.48;;;9.15;;
49610;SDS011;35515;48.766;9.176;2024-03-17T09:25:20;12.90;;;8.52;;
49610;SDS011;35515;48.766;9.176;2024-03-17T09:27:48;12.38;;;9.63;;
49610;SDS011;35515;48.766;9.176;2024-03-17T09:30:15;10.07;;;7.85;;
49610;SDS011;35515;48.766;9.176;2024-03-17T09:32:42;11.32;;;8.10;;
49610;SDS011;35515;48.766;9.176;2024-03-17T09:35:09;11.70;;;9.00;;
49610;SDS011;35515;48.766;9.176;2024-03-17T09:37:36;12.57;;;8.70;;
49610;SDS011;35515;48.766;9.176;2024-03-17T09:40:03;10.43;;;7.28;;
49610;SDS011;35515;48.766;9.176;2024-03-17T09:42:31;11.55;;;8.45;;
49610;SDS011;35515;48.766;9.176;2024-03-17T09:44:58;9.02;;;7.07;;
49610;SDS011;35515;48.766;9.176;2024-03-17T09:47:24;10.02;;;7.25;;
49610;SDS011;35515;48.766;9.176;2024-03-17T09:49:53;13.00;;;8.38;;
49610;SDS011;35515;48.766;9.176;2024-03-17T09:52:20;8.23;;;6.30;;
49610;SDS011;35515;48.766;9.176;2024-03-17T09:54:55;8.70;;;6.70;;
49610;SDS011;35515;48.766;9.176;2024-03-17T09:57:25;9.40;;;7.35;;
49610;SDS011;35515;48.766;9.176;2024-03-17T09:59:52;9.30;;;6.55;;
49610;SDS011;35515;48.766;9.176;2024-03-17T10:02:20;8.20;;;6.72;;
49610;SDS011;35515;48.766;9.176;2024-03-17T10:04:47;11.10;;;6.30;;
49610;SDS011;35515;48.766;9.176;2024-03-17T10:07:15;10.07;;;6.55;;
49610;SDS011;35515;48.766;9.176;2024-03-17T10:09:42;11.68;;;6.53;;
49610;SDS011;35515;48.766;9.176;2024-03-17T10:12:25;6.68;;;4.80;;
49610;SDS011;35515;48.766;9.176;2024-03-17T10:14:59;7.15;;;4.72;;
49610;SDS011;35515;48.766;9.176;2024-03-17T10:17:29;8.32;;;5.47;;
49610;SDS011;35515;48.766;9.176;2024-03-17T10:20:10;10.10;;;5.65;;
49610;SDS011;35515;48.766;9.176;2024-03-17T10:22:39;6.60;;;4.68;;
49610;SDS011;35515;48.766;9.176;2024-03-17T10:25:06;8.30;;;4.53;;
49610;SDS011;35515;48.766;9.176;2024-03-17T10:27:42;5.85;;;3.83;;
49610;SDS011;35515;48.766;9.176;2024-03-17T10:30:11;5.22;;;3.60;;
49610;SDS011;35515;48.766;9.176;2024-03-17T10:32:44;5.72;;;3.55;;
49610;SDS011;35515;48.766;9.176;2024-03-17T10:35:24;7.57;;;3.60;;
49610;SDS011;35515;48.766;9.176;2024-03-17T10:37:58;5.85;;;3.22;;
49610;SDS011;35515;48.766;9.176;2024-03-17T10:40:25;6.80;;;4.05;;
49610;SDS011;35515;48.766;9.176;2024-03-17T10:42:53;5.28;;;3.92;;
49610;SDS011;35515;48.766;9.176;2024-03-17T10:45:20;5.15;;;3.60;;
49610;SDS011;35515;48.766;9.176;2024-03-17T10:47:48;8.38;;;4.03;;
49610;SDS011;35515;48.766;9.176;2024-03-17T10:50:17;9.45;;;4.20;;
49610;SDS011;35515;48.766;9.176;2024-03-17T10:52:45;5.30;;;3.50;;
49610;SDS011;35515;48.766;9.176;2024-03-17T10:55:20;6.22;;;4.38;;
49610;SDS011;35515;48.766;9.176;2024-03-17T10:57:49;5.80;;;3.70;;
49610;SDS011;35515;48.766;9.176;2024-03-17T11:00:16;6.40;;;4.35;;
49610;SDS011;35515;48.766;9.176;2024-03-17T11:02:47;5.40;;;3.40;;
49610;SDS011;35515;48.766;9.176;2024-03-17T11:05:14;7.47;;;4.05;;
49610;SDS011;35515;48.766;9.176;2024-03-17T11:07:43;8.45;;;4.70;;
49610;SDS011;35515;48.766;9.176;2024-03-17T11:10:14;6.38;;;4.03;;
49610;SDS011;35515;48.766;9.176;2024-03-17T11:12:44;7.35;;;4.38;;
49610;SDS011;35515;48.766;9.176;2024-03-17T11:21:10;6.60;;;4.13;;
49610;SDS011;35515;48.766;9.176;2024-03-17T11:23:54;4.38;;;3.63;;
49610;SDS011;35515;48.766;9.176;2024-03-17T11:26:26;5.10;;;4.00;;
49610;SDS011;35515;48.766;9.176;2024-03-17T11:28:55;5.40;;;3.88;;
49610;SDS011;35515;48.766;9.176;2024-03-17T11:31:44;8.18;;;4.35;;
49610;SDS011;35515;48.766;9.176;2024-03-17T11:37:07;7.40;;;5.03;;
49610;SDS011;35515;48.766;9.176;2024-03-17T11:40:22;8.18;;;4.78;;
49610;SDS011;35515;48.766;9.176;2024-03-17T11:42:59;7.18;;;4.63;;
49610;SDS011;35515;48.766;9.176;2024-03-17T11:45:26;8.63;;;4.10;;
49610;SDS011;35515;48.766;9.176;2024-03-17T11:47:52;7.80;;;3.72;;
49610;SDS011;35515;48.766;9.176;2024-03-17T11:50:18;5.35;;;3.38;;
49610;SDS011;35515;48.766;9.176;2024-03-17T11:52:46;8.10;;;4.28;;
49610;SDS011;35515;48.766;9.176;2024-03-17T11:55:22;5.90;;;4.13;;
49610;SDS011;35515;48.766;9.176;2024-03-17T11:57:55;7.20;;;4.53;;
49610;SDS011;35515;48.766;9.176;2024-03-17T12:00:22;5.75;;;4.10;;
49610;SDS011;35515;48.766;9.176;2024-03-17T12:02:49;9.32;;;5.55;;
49610;SDS011;35515;48.766;9.176;2024-03-17T12:05:16;6.38;;;4.45;;
49610;SDS011;35515;48.766;9.176;2024-03-17T12:07:42;7.28;;;4.10;;
49610;SDS011;35515;48.766;9.176;2024-03-17T12:10:11;8.80;;;4.20;;
49610;SDS011;35515;48.766;9.176;2024-03-17T12:12:38;7.63;;;4.50;;
49610;SDS011;35515;48.766;9.176;2024-03-17T12:15:13;5.00;;;3.97;;
49610;SDS011;35515;48.766;9.176;2024-03-17T12:17:41;6.03;;;4.32;;
49610;SDS011;35515;48.766;9.176;2024-03-17T12:20:13;8.27;;;4.07;;
49610;SDS011;35515;48.766;9.176;2024-03-17T12:22:42;7.38;;;4.45;;
49610;SDS011;35515;48.766;9.176;2024-03-17T12:25:14;7.10;;;4.03;;
49610;SDS011;35515;48.766;9.176;2024-03-17T12:27:43;6.47;;;4.30;;
49610;SDS011;35515;48.766;9.176;2024-03-17T12:30:11;6.28;;;4.35;;
49610;SDS011;35515;48.766;9.176;2024-03-17T12:32:37;6.10;;;4.30;;
49610;SDS011;35515;48.766;9.176;2024-03-17T12:35:09;6.88;;;4.55;;
49610;SDS011;35515;48.766;9.176;2024-03-17T12:37:38;7.55;;;4.78;;
49610;SDS011;35515;48.766;9.176;2024-03-17T12:40:06;6.72;;;4.32;;
49610;SDS011;35515;48.766;9.176;2024-03-17T12:42:47;5.82;;;4.00;;
49610;SDS011;35515;48.766;9.176;2024-03-17T12:45:14;8.55;;;4.28;;
49610;SDS011;35515;48.766;9.176;2024-03-17T12:47:46;4.65;;;3.30;;
49610;SDS011;35515;48.766;9.176;2024-03-17T12:50:13;7.32;;;4.80;;
49610;SDS011;35515;48.766;9.176;2024-03-17T12:52:40;6.63;;;4.10;;
49610;SDS011;35515;48.766;9.176;2024-03-17T12:55:06;4.95;;;3.88;;
49610;SDS011;35515;48.766;9.176;2024-03-17T12:57:54;6.53;;;4.40;;
49610;SDS011;35515;48.766;9.176;2024-03-17T13:00:56;5.20;;;3.72;;
49610;SDS011;35515;48.766;9.176;2024-03-17T13:03:24;10.02;;;4.97;;
49610;SDS011;35515;48.766;9.176;2024-03-17T13:05:51;5.88;;;4.60;;
49610;SDS011;35515;48.766;9.176;2024-03-17T13:08:18;8.65;;;4.70;;
49610;SDS011;35515;48.766;9.176;2024-03-17T13:10:46;6.63;;;4.07;;
49610;SDS011;35515;48.766;9.176;2024-03-17T13:13:14;5.93;;;4.47;;
49610;SDS011;35515;48.766;9.176;2024-03-17T13:15:42;8.13;;;4.57;;
49610;SDS011;35515;48.766;9.176;2024-03-17T13:18:11;7.20;;;4.57;;
49610;SDS011;35515;48.766;9.176;2024-03-17T13:20:44;5.32;;;4.15;;
49610;SDS011;35515;48.766;9.176;2024-03-17T13:23:10;6.60;;;4.38;;
49610;SDS011;35515;48.766;9.176;2024-03-17T13:25:38;7.85;;;3.95;;
49610;SDS011;35515;48.766;9.176;2024-03-17T13:28:08;6.03;;;4.60;;
49610;SDS011;35515;48.766;9.176;2024-03-17T13:30:36;9.93;;;4.43;;
49610;SDS011;35515;48.766;9.176;2024-03-17T13:33:04;6.30;;;3.88;;
49610;SDS011;35515;48.766;9.176;2024-03-17T13:35:33;6.13;;;4.22;;
49610;SDS011;35515;48.766;9.176;2024-03-17T13:38:03;5.15;;;3.83;;
49610;SDS011;35515;48.766;9.176;2024-03-17T13:40:32;5.60;;;3.72;;
49610;SDS011;35515;48.766;9.176;2024-03-17T13:42:58;5.50;;;3.97;;
49610;SDS011;35515;48.766;9.176;2024-03-17T13:45:27;4.95;;;3.53;;
49610;SDS011;35515;48.766;9.176;2024-03-17T13:48:00;6.50;;;4.15;;
49610;SDS011;35515;48.766;9.176;2024-03-17T13:50:29;4.80;;;3.60;;
49610;SDS011;35515;48.766;9.176;2024-03-17T13:52:56;6.22;;;3.40;;
49610;SDS011;35515;48.766;9.176;2024-03-17T13:55:23;9.65;;;4.88;;
49610;SDS011;35515;48.766;9.176;2024-03-17T13:57:51;5.55;;;3.22;;
49610;SDS011;35515;48.766;9.176;2024-03-17T14:00:19;7.55;;;3.30;;
49610;SDS011;35515;48.766;9.176;2024-03-17T14:02:47;5.20;;;3.20;;
49610;SDS011;35515;48.766;9.176;2024-03-17T14:05:16;4.80;;;3.47;;
49610;SDS011;35515;48.766;9.176;2024-03-17T14:07:44;6.05;;;3.28;;
49610;SDS011;35515;48.766;9.176;2024-03-17T14:10:11;4.35;;;2.95;;
49610;SDS011;35515;48.766;9.176;2024-03-17T14:12:39;6.97;;;2.97;;
49610;SDS011;35515;48.766;9.176;2024-03-17T14:15:06;4.70;;;3.40;;
49610;SDS011;35515;48.766;9.176;2024-03-17T14:17:35;3.90;;;2.88;;
49610;SDS011;35515;48.766;9.176;2024-03-17T14:20:02;6.93;;;2.90;;
49610;SDS011;35515;48.766;9.176;2024-03-17T14:22:32;6.32;;;2.90;;
49610;SDS011;35515;48.766;9.176;2024-03-17T14:24:58;4.15;;;3.03;;
49610;SDS011;35515;48.766;9.176;2024-03-17T14:27:25;4.22;;;3.20;;
49610;SDS011;35515;48.766;9.176;2024-03-17T14:29:52;6.10;;;3.28;;
49610;SDS011;35515;48.766;9.176;2024-03-17T14:32:19;5.43;;;3.60;;
49610;SDS011;35515;48.766;9.176;2024-03-17T14:34:46;6.20;;;3.45;;
49610;SDS011;35515;48.766;9.176;2024-03-17T14:37:13;4.18;;;2.97;;
49610;SDS011;35515;48.766;9.176;2024-03-17T14:39:41;4.78;;;2.55;;
49610;SDS011;35515;48.766;9.176;2024-03-17T14:42:09;8.05;;;4.28;;
49610;SDS011;35515;48.766;9.176;2024-03-17T14:44:36;5.38;;;3.35;;
49610;SDS011;35515;48.766;9.176;2024-03-17T14:47:03;4.90;;;3.20;;
49610;SDS011;35515;48.766;9.176;2024-03-17T14:49:30;5.03;;;3.40;;
49610;SDS011;35515;48.766;9.176;2024-03-17T14:51:56;7.53;;;3.80;;
49610;SDS011;35515;48.766;9.176;2024-03-17T14:54:23;5.03;;;3.25;;
49610;SDS011;35515;48.766;9.176;2024-03-17T14:56:52;5.38;;;2.85;;